sensor_id;sensor_type;location;lat;lon;timestamp;P1;durP1;ratioP1;P2;durP2;ratioP2
10347;SDS011;5220;43.192;23.284;2023-07-13T00:02:16;6.28;;;4.05;;
10347;SDS011;5220;43.192;23.284;2023-07-13T00:04:42;9.05;;;3.80;;
10347;SDS011;5220;43.192;23.284;2023-07-13T00:07:09;5.50;;;3.58;;
10347;SDS011;5220;43.192;23.284;2023-07-13T00:09:37;3.85;;;3.35;;
10347;SDS011;5220;43.192;23.284;2023-07-13T00:12:04;5.63;;;3.42;;
10347;SDS011;5220;43.192;23.284;2023-07-13T00:14:47;6.82;;;3.92;;
10347;SDS011;5220;43.192;23.284;2023-07-13T00:17:14;5.72;;;3.65;;
10347;SDS011;5220;43.192;23.284;2023-07-13T00:19:41;5.80;;;3.40;;
10347;SDS011;5220;43.192;23.284;2023-07-13T00:22:07;4.18;;;3.55;;
10347;SDS011;5220;43.192;23.284;2023-07-13T00:24:34;4.07;;;3.40;;
10347;SDS011;5220;43.192;23.284;2023-07-13T00:27:08;5.88;;;3.30;;
10347;SDS011;5220;43.192;23.284;2023-07-13T00:29:34;7.22;;;3.63;;
10347;SDS011;5220;43.192;23.284;2023-07-13T00:32:02;4.80;;;3.40;;
10347;SDS011;5220;43.192;23.284;2023-07-13T00:34:29;7.65;;;3.78;;
10347;SDS011;5220;43.192;23.284;2023-07-13T00:36:56;7.68;;;3.42;;
10347;SDS011;5220;43.192;23.284;2023-07-13T00:39:23;4.85;;;3.00;;
10347;SDS011;5220;43.192;23.284;2023-07-13T00:41:50;8.23;;;3.47;;
10347;SDS011;5220;43.192;23.284;2023-07-13T00:44:19;5.78;;;3.55;;
10347;SDS011;5220;43.192;23.284;2023-07-13T00:46:48;6.78;;;4.10;;
10347;SDS011;5220;43.192;23.284;2023-07-13T00:49:15;7.30;;;3.30;;
10347;SDS011;5220;43.192;23.284;2023-07-13T00:51:46;6.28;;;3.60;;
10347;SDS011;5220;43.192;23.284;2023-07-13T00:54:18;4.95;;;3.70;;
10347;SDS011;5220;43.192;23.284;2023-07-13T00:56:47;4.95;;;3.85;;
10347;SDS011;5220;43.192;23.284;2023-07-13T00:59:16;4.07;;;3.38;;
10347;SDS011;5220;43.192;23.284;2023-07-13T01:01:46;3.80;;;3.50;;
10347;SDS011;5220;43.192;23.284;2023-07-13T01:04:14;5.43;;;3.75;;
10347;SDS011;5220;43.192;23.284;2023-07-13T01:06:41;4.35;;;3.30;;
10347;SDS011;5220;43.192;23.284;2023-07-13T01:09:09;4.75;;;3.25;;
10347;SDS011;5220;43.192;23.284;2023-07-13T01:11:37;7.45;;;3.40;;
10347;SDS011;5220;43.192;23.284;2023-07-13T01:14:04;4.45;;;3.40;;
10347;SDS011;5220;43.192;23.284;2023-07-13T01:16:33;7.07;;;3.90;;
10347;SDS011;5220;43.192;23.284;2023-07-13T01:19:03;4.85;;;3.25;;
10347;SDS011;5220;43.192;23.284;2023-07-13T01:21:40;6.97;;;3.50;;
10347;SDS011;5220;43.192;23.284;2023-07-13T01:24:08;6.30;;;3.40;;
10347;SDS011;5220;43.192;23.284;2023-07-13T01:26:34;5.22;;;3.53;;
10347;SDS011;5220;43.192;23.284;2023-07-13T01:29:01;8.70;;;4.07;;
10347;SDS011;5220;43.192;23.284;2023-07-13T01:31:28;7.88;;;3.90;;
10347;SDS011;5220;43.192;23.284;2023-07-13T01:33:55;6.95;;;3.90;;
10347;SDS011;5220;43.192;23.284;2023-07-13T01:36:22;8.77;;;3.30;;
10347;SDS011;5220;43.192;23.284;2023-07-13T01:38:50;4.13;;;3.40;;
10347;SDS011;5220;43.192;23.284;2023-07-13T01:41:17;5.97;;;3.67;;
10347;SDS011;5220;43.192;23.284;2023-07-13T01:43:44;4.80;;;3.65;;
10347;SDS011;5220;43.192;23.284;2023-07-13T01:46:11;4.68;;;3.53;;
10347;SDS011;5220;43.192;23.284;2023-07-13T01:48:37;6.60;;;4.53;;
10347;SDS011;5220;43.192;23.284;2023-07-13T01:51:04;5.03;;;3.70;;
10347;SDS011;5220;43.192;23.284;2023-07-13T01:53:31;6.05;;;3.88;;
10347;SDS011;5220;43.192;23.284;2023-07-13T01:55:59;7.93;;;4.10;;
10347;SDS011;5220;43.192;23.284;2023-07-13T01:58:25;4.28;;;3.88;;
10347;SDS011;5220;43.192;23.284;2023-07-13T02:00:52;7.28;;;3.85;;
10347;SDS011;5220;43.192;23.284;2023-07-13T02:03:19;10.07;;;3.90;;
10347;SDS011;5220;43.192;23.284;2023-07-13T02:05:46;4.55;;;3.60;;
10347;SDS011;5220;43.192;23.284;2023-07-13T02:08:12;5.03;;;3.67;;
10347;SDS011;5220;43.192;23.284;2023-07-13T02:10:39;6.30;;;4.10;;
10347;SDS011;5220;43.192;23.284;2023-07-13T02:13:07;5.22;;;4.03;;
10347;SDS011;5220;43.192;23.284;2023-07-13T02:15:34;4.93;;;3.95;;
10347;SDS011;5220;43.192;23.284;2023-07-13T02:18:04;4.43;;;3.65;;
10347;SDS011;5220;43.192;23.284;2023-07-13T02:20:31;4.97;;;3.80;;
10347;SDS011;5220;43.192;23.284;2023-07-13T02:22:58;4.88;;;4.38;;
10347;SDS011;5220;43.192;23.284;2023-07-13T02:25:25;5.75;;;3.85;;
10347;SDS011;5220;43.192;23.284;2023-07-13T02:27:52;5.43;;;4.00;;
10347;SDS011;5220;43.192;23.284;2023-07-13T02:30:20;8.13;;;4.55;;
10347;SDS011;5220;43.192;23.284;2023-07-13T02:32:49;8.07;;;4.53;;
10347;SDS011;5220;43.192;23.284;2023-07-13T02:35:16;6.13;;;4.78;;
10347;SDS011;5220;43.192;23.284;2023-07-13T02:37:43;9.38;;;5.13;;
10347;SDS011;5220;43.192;23.284;2023-07-13T02:40:10;7.30;;;5.13;;
10347;SDS011;5220;43.192;23.284;2023-07-13T02:42:36;7.40;;;4.60;;
10347;SDS011;5220;43.192;23.284;2023-07-13T02:45:04;6.50;;;4.25;;
10347;SDS011;5220;43.192;23.284;2023-07-13T02:47:33;4.65;;;4.13;;
10347;SDS011;5220;43.192;23.284;2023-07-13T02:50:00;8.15;;;4.55;;
10347;SDS011;5220;43.192;23.284;2023-07-13T02:52:26;8.32;;;4.32;;
10347;SDS011;5220;43.192;23.284;2023-07-13T02:54:53;7.47;;;4.38;;
10347;SDS011;5220;43.192;23.284;2023-07-13T02:57:20;8.10;;;4.32;;
10347;SDS011;5220;43.192;23.284;2023-07-13T02:59:47;7.90;;;4.88;;
10347;SDS011;5220;43.192;23.284;2023-07-13T03:02:13;6.38;;;4.68;;
10347;SDS011;5220;43.192;23.284;2023-07-13T03:04:42;6.15;;;4.35;;
10347;SDS011;5220;43.192;23.284;2023-07-13T03:07:08;5.53;;;4.18;;
10347;SDS011;5220;43.192;23.284;2023-07-13T03:09:35;4.50;;;4.10;;
10347;SDS011;5220;43.192;23.284;2023-07-13T03:12:02;6.72;;;3.85;;
10347;SDS011;5220;43.192;23.284;2023-07-13T03:14:29;5.47;;;4.07;;
10347;SDS011;5220;43.192;23.284;2023-07-13T03:16:56;7.95;;;4.20;;
10347;SDS011;5220;43.192;23.284;2023-07-13T03:19:23;7.90;;;4.60;;
10347;SDS011;5220;43.192;23.284;2023-07-13T03:21:51;5.80;;;4.18;;
10347;SDS011;5220;43.192;23.284;2023-07-13T03:24:18;4.32;;;3.92;;
10347;SDS011;5220;43.192;23.284;2023-07-13T03:26:45;7.13;;;4.47;;
10347;SDS011;5220;43.192;23.284;2023-07-13T03:29:11;4.50;;;4.10;;
10347;SDS011;5220;43.192;23.284;2023-07-13T03:31:38;6.25;;;3.97;;
10347;SDS011;5220;43.192;23.284;2023-07-13T03:34:06;7.22;;;4.47;;
10347;SDS011;5220;43.192;23.284;2023-07-13T03:36:32;9.35;;;4.25;;
10347;SDS011;5220;43.192;23.284;2023-07-13T03:39:01;7.75;;;3.92;;
10347;SDS011;5220;43.192;23.284;2023-07-13T03:41:29;7.93;;;4.28;;
10347;SDS011;5220;43.192;23.284;2023-07-13T03:43:56;5.97;;;3.97;;
10347;SDS011;5220;43.192;23.284;2023-07-13T03:46:23;6.68;;;3.80;;
10347;SDS011;5220;43.192;23.284;2023-07-13T03:48:51;6.15;;;5.13;;
10347;SDS011;5220;43.192;23.284;2023-07-13T03:51:18;7.60;;;5.03;;
10347;SDS011;5220;43.192;23.284;2023-07-13T03:53:46;6.25;;;4.10;;
10347;SDS011;5220;43.192;23.284;2023-07-13T03:56:15;8.65;;;4.47;;
10347;SDS011;5220;43.192;23.284;2023-07-13T03:58:43;7.22;;;4.63;;
10347;SDS011;5220;43.192;23.284;2023-07-13T04:01:11;5.22;;;4.45;;
10347;SDS011;5220;43.192;23.284;2023-07-13T04:03:39;6.75;;;4.40;;
10347;SDS011;5220;43.192;23.284;2023-07-13T04:06:07;6.18;;;4.78;;
10347;SDS011;5220;43.192;23.284;2023-07-13T04:08:40;6.60;;;4.57;;
10347;SDS011;5220;43.192;23.284;2023-07-13T04:11:07;8.88;;;4.68;;
10347;SDS011;5220;43.192;23.284;2023-07-13T04:13:35;5.43;;;4.85;;
10347;SDS011;5220;43.192;23.284;2023-07-13T04:16:02;5.30;;;4.47;;
10347;SDS011;5220;43.192;23.284;2023-07-13T04:18:28;7.25;;;4.45;;
10347;SDS011;5220;43.192;23.284;2023-07-13T04:20:55;7.35;;;4.70;;
10347;SDS011;5220;43.192;23.284;2023-07-13T04:23:22;5.68;;;4.20;;
10347;SDS011;5220;43.192;23.284;2023-07-13T04:25:51;5.55;;;4.93;;
10347;SDS011;5220;43.192;23.284;2023-07-13T04:28:19;5.35;;;4.45;;
10347;SDS011;5220;43.192;23.284;2023-07-13T04:30:47;9.68;;;4.60;;
10347;SDS011;5220;43.192;23.284;2023-07-13T04:33:14;6.18;;;4.85;;
10347;SDS011;5220;43.192;23.284;2023-07-13T04:35:42;5.60;;;4.47;;
10347;SDS011;5220;43.192;23.284;2023-07-13T04:38:09;7.15;;;5.07;;
10347;SDS011;5220;43.192;23.284;2023-07-13T04:40:37;6.85;;;5.07;;
10347;SDS011;5220;43.192;23.284;2023-07-13T04:43:04;9.20;;;4.88;;
10347;SDS011;5220;43.192;23.284;2023-07-13T04:45:30;8.68;;;4.50;;
10347;SDS011;5220;43.192;23.284;2023-07-13T04:47:58;5.75;;;4.43;;
10347;SDS011;5220;43.192;23.284;2023-07-13T04:50:25;7.35;;;4.40;;
10347;SDS011;5220;43.192;23.284;2023-07-13T04:52:52;6.60;;;4.72;;
10347;SDS011;5220;43.192;23.284;2023-07-13T04:55:19;5.00;;;4.50;;
10347;SDS011;5220;43.192;23.284;2023-07-13T04:57:46;5.05;;;4.35;;
10347;SDS011;5220;43.192;23.284;2023-07-13T05:00:14;11.95;;;4.90;;
10347;SDS011;5220;43.192;23.284;2023-07-13T05:02:43;13.75;;;5.40;;
10347;SDS011;5220;43.192;23.284;2023-07-13T05:05:12;29.92;;;6.63;;
10347;SDS011;5220;43.192;23.284;2023-07-13T05:07:39;37.13;;;7.30;;
10347;SDS011;5220;43.192;23.284;2023-07-13T05:10:06;27.23;;;6.93;;
10347;SDS011;5220;43.192;23.284;2023-07-13T05:12:34;9.02;;;5.25;;
10347;SDS011;5220;43.192;23.284;2023-07-13T05:15:01;6.47;;;4.35;;
10347;SDS011;5220;43.192;23.284;2023-07-13T05:17:28;10.30;;;4.70;;
10347;SDS011;5220;43.192;23.284;2023-07-13T05:19:54;17.88;;;5.22;;
10347;SDS011;5220;43.192;23.284;2023-07-13T05:22:22;9.38;;;4.97;;
10347;SDS011;5220;43.192;23.284;2023-07-13T05:24:49;14.65;;;5.47;;
10347;SDS011;5220;43.192;23.284;2023-07-13T05:27:16;7.80;;;4.22;;
10347;SDS011;5220;43.192;23.284;2023-07-13T05:29:43;48.72;;;7.72;;
10347;SDS011;5220;43.192;23.284;2023-07-13T05:32:10;78.15;;;11.38;;
10347;SDS011;5220;43.192;23.284;2023-07-13T05:34:36;54.60;;;10.18;;
10347;SDS011;5220;43.192;23.284;2023-07-13T05:37:03;63.63;;;10.43;;
10347;SDS011;5220;43.192;23.284;2023-07-13T05:39:32;35.92;;;8.60;;
10347;SDS011;5220;43.192;23.284;2023-07-13T05:41:58;15.00;;;5.55;;
10347;SDS011;5220;43.192;23.284;2023-07-13T05:44:25;10.32;;;4.57;;
10347;SDS011;5220;43.192;23.284;2023-07-13T05:46:52;5.38;;;4.20;;
10347;SDS011;5220;43.192;23.284;2023-07-13T05:49:20;6.68;;;3.85;;
10347;SDS011;5220;43.192;23.284;2023-07-13T05:51:46;6.55;;;4.30;;
10347;SDS011;5220;43.192;23.284;2023-07-13T05:54:13;5.95;;;4.53;;
10347;SDS011;5220;43.192;23.284;2023-07-13T05:56:41;6.03;;;4.18;;
10347;SDS011;5220;43.192;23.284;2023-07-13T05:59:08;9.38;;;5.78;;
10347;SDS011;5220;43.192;23.284;2023-07-13T06:01:35;8.07;;;4.95;;
10347;SDS011;5220;43.192;23.284;2023-07-13T06:04:01;7.80;;;4.82;;
10347;SDS011;5220;43.192;23.284;2023-07-13T06:06:28;6.10;;;4.47;;
10347;SDS011;5220;43.192;23.284;2023-07-13T06:08:55;5.03;;;4.45;;
10347;SDS011;5220;43.192;23.284;2023-07-13T06:11:22;5.07;;;4.57;;
10347;SDS011;5220;43.192;23.284;2023-07-13T06:13:52;9.68;;;5.70;;
10347;SDS011;5220;43.192;23.284;2023-07-13T06:16:19;7.55;;;5.82;;
10347;SDS011;5220;43.192;23.284;2023-07-13T06:18:46;12.88;;;6.10;;
10347;SDS011;5220;43.192;23.284;2023-07-13T06:21:14;7.18;;;5.60;;
10347;SDS011;5220;43.192;23.284;2023-07-13T06:23:43;8.23;;;5.57;;
10347;SDS011;5220;43.192;23.284;2023-07-13T06:26:12;8.90;;;5.97;;
10347;SDS011;5220;43.192;23.284;2023-07-13T06:28:39;6.97;;;5.53;;
10347;SDS011;5220;43.192;23.284;2023-07-13T06:31:08;6.05;;;5.45;;
10347;SDS011;5220;43.192;23.284;2023-07-13T06:33:36;6.85;;;5.85;;
10347;SDS011;5220;43.192;23.284;2023-07-13T06:36:03;8.15;;;6.45;;
10347;SDS011;5220;43.192;23.284;2023-07-13T06:38:31;11.25;;;7.50;;
10347;SDS011;5220;43.192;23.284;2023-07-13T06:40:58;9.45;;;6.68;;
10347;SDS011;5220;43.192;23.284;2023-07-13T06:43:25;9.00;;;6.65;;
10347;SDS011;5220;43.192;23.284;2023-07-13T06:45:54;8.82;;;6.07;;
10347;SDS011;5220;43.192;23.284;2023-07-13T06:48:23;8.10;;;6.10;;
10347;SDS011;5220;43.192;23.284;2023-07-13T06:50:50;7.50;;;6.45;;
10347;SDS011;5220;43.192;23.284;2023-07-13T06:53:18;12.18;;;6.60;;
10347;SDS011;5220;43.192;23.284;2023-07-13T06:55:45;9.45;;;6.75;;
10347;SDS011;5220;43.192;23.284;2023-07-13T06:58:14;13.35;;;7.13;;
10347;SDS011;5220;43.192;23.284;2023-07-13T07:00:42;9.55;;;6.50;;
10347;SDS011;5220;43.192;23.284;2023-07-13T07:03:08;9.23;;;5.72;;
10347;SDS011;5220;43.192;23.284;2023-07-13T07:05:36;9.23;;;6.03;;
10347;SDS011;5220;43.192;23.284;2023-07-13T07:08:03;8.73;;;6.78;;
10347;SDS011;5220;43.192;23.284;2023-07-13T07:10:30;9.70;;;6.13;;
10347;SDS011;5220;43.192;23.284;2023-07-13T07:12:57;5.80;;;5.00;;
10347;SDS011;5220;43.192;23.284;2023-07-13T07:15:24;7.38;;;5.15;;
10347;SDS011;5220;43.192;23.284;2023-07-13T07:17:51;8.48;;;6.40;;
10347;SDS011;5220;43.192;23.284;2023-07-13T07:20:18;11.63;;;5.53;;
10347;SDS011;5220;43.192;23.284;2023-07-13T07:22:46;13.95;;;6.15;;
10347;SDS011;5220;43.192;23.284;2023-07-13T07:25:13;14.40;;;6.18;;
10347;SDS011;5220;43.192;23.284;2023-07-13T07:27:40;7.85;;;5.35;;
10347;SDS011;5220;43.192;23.284;2023-07-13T07:30:07;10.18;;;5.57;;
10347;SDS011;5220;43.192;23.284;2023-07-13T07:32:34;8.02;;;5.10;;
10347;SDS011;5220;43.192;23.284;2023-07-13T07:35:01;10.23;;;5.70;;
10347;SDS011;5220;43.192;23.284;2023-07-13T07:37:28;10.15;;;5.22;;
10347;SDS011;5220;43.192;23.284;2023-07-13T07:39:56;8.25;;;4.75;;
10347;SDS011;5220;43.192;23.284;2023-07-13T07:42:24;8.85;;;5.55;;
10347;SDS011;5220;43.192;23.284;2023-07-13T07:44:51;6.72;;;6.10;;
10347;SDS011;5220;43.192;23.284;2023-07-13T07:47:17;15.32;;;5.30;;
10347;SDS011;5220;43.192;23.284;2023-07-13T07:49:44;5.97;;;4.30;;
10347;SDS011;5220;43.192;23.284;2023-07-13T07:52:11;8.88;;;5.10;;
10347;SDS011;5220;43.192;23.284;2023-07-13T07:54:37;15.70;;;6.47;;
10347;SDS011;5220;43.192;23.284;2023-07-13T07:57:06;8.48;;;5.25;;
10347;SDS011;5220;43.192;23.284;2023-07-13T07:59:33;6.47;;;4.85;;
10347;SDS011;5220;43.192;23.284;2023-07-13T08:02:00;6.80;;;5.07;;
10347;SDS011;5220;43.192;23.284;2023-07-13T08:04:27;6.13;;;4.65;;
10347;SDS011;5220;43.192;23.284;2023-07-13T08:06:54;6.63;;;4.65;;
10347;SDS011;5220;43.192;23.284;2023-07-13T08:09:22;9.88;;;4.88;;
10347;SDS011;5220;43.192;23.284;2023-07-13T08:11:49;7.60;;;4.90;;
10347;SDS011;5220;43.192;23.284;2023-07-13T08:14:18;9.00;;;5.07;;
10347;SDS011;5220;43.192;23.284;2023-07-13T08:16:45;12.00;;;4.80;;
10347;SDS011;5220;43.192;23.284;2023-07-13T08:19:12;8.02;;;5.30;;
10347;SDS011;5220;43.192;23.284;2023-07-13T08:21:38;8.13;;;5.07;;
10347;SDS011;5220;43.192;23.284;2023-07-13T08:24:08;5.95;;;4.75;;
10347;SDS011;5220;43.192;23.284;2023-07-13T08:26:35;9.82;;;5.40;;
10347;SDS011;5220;43.192;23.284;2023-07-13T08:29:02;7.55;;;4.97;;
10347;SDS011;5220;43.192;23.284;2023-07-13T08:31:30;8.18;;;5.32;;
10347;SDS011;5220;43.192;23.284;2023-07-13T08:33:57;8.77;;;4.93;;
10347;SDS011;5220;43.192;23.284;2023-07-13T08:36:24;8.57;;;5.43;;
10347;SDS011;5220;43.192;23.284;2023-07-13T08:38:51;15.68;;;7.22;;
10347;SDS011;5220;43.192;23.284;2023-07-13T08:41:18;5.75;;;5.13;;
10347;SDS011;5220;43.192;23.284;2023-07-13T08:43:47;11.73;;;5.45;;
10347;SDS011;5220;43.192;23.284;2023-07-13T08:46:17;5.07;;;4.53;;
10347;SDS011;5220;43.192;23.284;2023-07-13T08:48:50;8.35;;;5.00;;
10347;SDS011;5220;43.192;23.284;2023-07-13T08:51:23;10.10;;;5.22;;
10347;SDS011;5220;43.192;23.284;2023-07-13T08:53:58;7.97;;;4.80;;
10347;SDS011;5220;43.192;23.284;2023-07-13T08:56:29;7.68;;;4.70;;
10347;SDS011;5220;43.192;23.284;2023-07-13T08:58:58;12.18;;;5.68;;
10347;SDS011;5220;43.192;23.284;2023-07-13T09:01:31;6.88;;;4.60;;
10347;SDS011;5220;43.192;23.284;2023-07-13T09:04:13;8.15;;;4.65;;
10347;SDS011;5220;43.192;23.284;2023-07-13T09:06:45;8.40;;;4.60;;
10347;SDS011;5220;43.192;23.284;2023-07-13T09:09:27;10.82;;;4.80;;
10347;SDS011;5220;43.192;23.284;2023-07-13T09:12:07;10.18;;;4.60;;
10347;SDS011;5220;43.192;23.284;2023-07-13T09:14:41;8.07;;;5.15;;
10347;SDS011;5220;43.192;23.284;2023-07-13T09:17:12;6.68;;;4.57;;
10347;SDS011;5220;43.192;23.284;2023-07-13T09:19:46;10.30;;;5.28;;
10347;SDS011;5220;43.192;23.284;2023-07-13T09:22:20;8.15;;;4.60;;
10347;SDS011;5220;43.192;23.284;2023-07-13T09:24:52;9.15;;;5.40;;
10347;SDS011;5220;43.192;23.284;2023-07-13T09:27:22;7.82;;;4.72;;
10347;SDS011;5220;43.192;23.284;2023-07-13T09:30:02;7.82;;;5.35;;
10347;SDS011;5220;43.192;23.284;2023-07-13T09:32:44;9.45;;;5.15;;
10347;SDS011;5220;43.192;23.284;2023-07-13T09:35:17;9.55;;;4.60;;
10347;SDS011;5220;43.192;23.284;2023-07-13T09:37:46;8.02;;;5.18;;
10347;SDS011;5220;43.192;23.284;2023-07-13T09:40:21;6.25;;;5.25;;
10347;SDS011;5220;43.192;23.284;2023-07-13T09:42:55;6.63;;;4.60;;
10347;SDS011;5220;43.192;23.284;2023-07-13T09:45:27;10.82;;;5.22;;
10347;SDS011;5220;43.192;23.284;2023-07-13T09:47:58;11.27;;;5.47;;
10347;SDS011;5220;43.192;23.284;2023-07-13T09:50:31;6.60;;;4.63;;
10347;SDS011;5220;43.192;23.284;2023-07-13T09:52:57;5.22;;;4.57;;
10347;SDS011;5220;43.192;23.284;2023-07-13T09:55:28;7.63;;;4.75;;
10347;SDS011;5220;43.192;23.284;2023-07-13T09:57:58;11.48;;;5.00;;
10347;SDS011;5220;43.192;23.284;2023-07-13T10:00:30;6.93;;;4.85;;
10347;SDS011;5220;43.192;23.284;2023-07-13T10:02:58;11.07;;;5.10;;
10347;SDS011;5220;43.192;23.284;2023-07-13T10:05:38;11.05;;;4.90;;
10347;SDS011;5220;43.192;23.284;2023-07-13T10:08:08;7.57;;;4.85;;
10347;SDS011;5220;43.192;23.284;2023-07-13T10:10:43;9.85;;;5.50;;
10347;SDS011;5220;43.192;23.284;2023-07-13T10:13:20;9.23;;;5.35;;
10347;SDS011;5220;43.192;23.284;2023-07-13T10:15:54;6.65;;;5.05;;
10347;SDS011;5220;43.192;23.284;2023-07-13T10:18:22;7.53;;;5.07;;
10347;SDS011;5220;43.192;23.284;2023-07-13T10:20:52;9.48;;;5.30;;
10347;SDS011;5220;43.192;23.284;2023-07-13T10:23:25;9.13;;;4.68;;
10347;SDS011;5220;43.192;23.284;2023-07-13T10:25:57;9.15;;;5.15;;
10347;SDS011;5220;43.192;23.284;2023-07-13T10:28:27;7.15;;;4.85;;
10347;SDS011;5220;43.192;23.284;2023-07-13T10:30:58;6.05;;;4.50;;
10347;SDS011;5220;43.192;23.284;2023-07-13T10:33:27;16.58;;;5.75;;
10347;SDS011;5220;43.192;23.284;2023-07-13T10:35:57;9.48;;;5.30;;
10347;SDS011;5220;43.192;23.284;2023-07-13T10:38:30;18.05;;;6.95;;
10347;SDS011;5220;43.192;23.284;2023-07-13T10:40:58;6.53;;;5.10;;
10347;SDS011;5220;43.192;23.284;2023-07-13T10:43:29;7.07;;;4.43;;
10347;SDS011;5220;43.192;23.284;2023-07-13T10:46:02;7.78;;;5.10;;
10347;SDS011;5220;43.192;23.284;2023-07-13T10:48:31;8.85;;;4.88;;
10347;SDS011;5220;43.192;23.284;2023-07-13T10:51:01;8.15;;;5.00;;
10347;SDS011;5220;43.192;23.284;2023-07-13T10:53:31;8.88;;;4.68;;
10347;SDS011;5220;43.192;23.284;2023-07-13T10:56:00;11.02;;;6.85;;
10347;SDS011;5220;43.192;23.284;2023-07-13T10:58:34;7.40;;;6.60;;
10347;SDS011;5220;43.192;23.284;2023-07-13T11:01:04;10.38;;;5.45;;
10347;SDS011;5220;43.192;23.284;2023-07-13T11:03:35;10.02;;;5.57;;
10347;SDS011;5220;43.192;23.284;2023-07-13T11:06:07;6.38;;;5.03;;
10347;SDS011;5220;43.192;23.284;2023-07-13T11:08:37;8.93;;;5.25;;
10347;SDS011;5220;43.192;23.284;2023-07-13T11:14:03;12.65;;;7.50;;
10347;SDS011;5220;43.192;23.284;2023-07-13T11:16:37;6.22;;;5.22;;
10347;SDS011;5220;43.192;23.284;2023-07-13T11:19:26;7.40;;;5.07;;
10347;SDS011;5220;43.192;23.284;2023-07-13T11:22:09;15.57;;;6.45;;
10347;SDS011;5220;43.192;23.284;2023-07-13T11:27:34;11.02;;;5.60;;
10347;SDS011;5220;43.192;23.284;2023-07-13T11:30:07;8.77;;;5.25;;
10347;SDS011;5220;43.192;23.284;2023-07-13T11:32:50;6.57;;;5.00;;
10347;SDS011;5220;43.192;23.284;2023-07-13T11:35:21;10.10;;;5.30;;
10347;SDS011;5220;43.192;23.284;2023-07-13T11:37:51;9.77;;;5.45;;
10347;SDS011;5220;43.192;23.284;2023-07-13T11:40:26;10.38;;;5.20;;
10347;SDS011;5220;43.192;23.284;2023-07-13T11:42:58;7.40;;;5.63;;
10347;SDS011;5220;43.192;23.284;2023-07-13T11:45:26;7.28;;;4.95;;
10347;SDS011;5220;43.192;23.284;2023-07-13T11:47:53;8.88;;;5.28;;
10347;SDS011;5220;43.192;23.284;2023-07-13T11:50:23;9.18;;;5.03;;
10347;SDS011;5220;43.192;23.284;2023-07-13T11:52:52;11.45;;;6.03;;
10347;SDS011;5220;43.192;23.284;2023-07-13T11:55:21;6.63;;;4.93;;
10347;SDS011;5220;43.192;23.284;2023-07-13T11:57:51;10.75;;;5.18;;
10347;SDS011;5220;43.192;23.284;2023-07-13T12:00:23;7.22;;;4.93;;
10347;SDS011;5220;43.192;23.284;2023-07-13T12:02:55;7.53;;;5.00;;
10347;SDS011;5220;43.192;23.284;2023-07-13T12:05:25;7.68;;;5.15;;
10347;SDS011;5220;43.192;23.284;2023-07-13T12:07:53;8.65;;;4.70;;
10347;SDS011;5220;43.192;23.284;2023-07-13T12:10:22;10.95;;;5.38;;
10347;SDS011;5220;43.192;23.284;2023-07-13T12:12:52;10.57;;;5.35;;
10347;SDS011;5220;43.192;23.284;2023-07-13T12:15:20;8.30;;;5.45;;
10347;SDS011;5220;43.192;23.284;2023-07-13T12:17:48;10.40;;;5.25;;
10347;SDS011;5220;43.192;23.284;2023-07-13T12:20:19;8.70;;;5.10;;
10347;SDS011;5220;43.192;23.284;2023-07-13T12:22:49;7.40;;;5.32;;
10347;SDS011;5220;43.192;23.284;2023-07-13T12:25:18;10.90;;;6.13;;
10347;SDS011;5220;43.192;23.284;2023-07-13T12:27:46;8.05;;;5.78;;
10347;SDS011;5220;43.192;23.284;2023-07-13T12:30:21;20.48;;;13.05;;
10347;SDS011;5220;43.192;23.284;2023-07-13T12:32:58;11.45;;;7.22;;
10347;SDS011;5220;43.192;23.284;2023-07-13T12:35:28;8.05;;;5.82;;
10347;SDS011;5220;43.192;23.284;2023-07-13T12:38:00;9.30;;;5.35;;
10347;SDS011;5220;43.192;23.284;2023-07-13T12:40:31;6.07;;;5.40;;
10347;SDS011;5220;43.192;23.284;2023-07-13T12:43:00;7.68;;;5.22;;
10347;SDS011;5220;43.192;23.284;2023-07-13T12:45:29;8.77;;;5.65;;
10347;SDS011;5220;43.192;23.284;2023-07-13T12:47:57;9.35;;;5.68;;
10347;SDS011;5220;43.192;23.284;2023-07-13T12:50:30;10.35;;;5.60;;
10347;SDS011;5220;43.192;23.284;2023-07-13T12:53:03;10.23;;;5.82;;
10347;SDS011;5220;43.192;23.284;2023-07-13T12:55:39;9.60;;;5.78;;
10347;SDS011;5220;43.192;23.284;2023-07-13T12:58:10;9.05;;;5.53;;
10347;SDS011;5220;43.192;23.284;2023-07-13T13:00:47;9.50;;;5.55;;
10347;SDS011;5220;43.192;23.284;2023-07-13T13:03:19;7.63;;;5.40;;
10347;SDS011;5220;43.192;23.284;2023-07-13T13:05:56;10.88;;;5.82;;
10347;SDS011;5220;43.192;23.284;2023-07-13T13:08:24;8.30;;;6.15;;
10347;SDS011;5220;43.192;23.284;2023-07-13T13:10:52;28.63;;;7.40;;
10347;SDS011;5220;43.192;23.284;2023-07-13T13:13:19;11.15;;;5.38;;
10347;SDS011;5220;43.192;23.284;2023-07-13T13:15:46;12.73;;;8.02;;
10347;SDS011;5220;43.192;23.284;2023-07-13T13:18:17;8.73;;;5.53;;
10347;SDS011;5220;43.192;23.284;2023-07-13T13:20:45;11.52;;;5.90;;
10347;SDS011;5220;43.192;23.284;2023-07-13T13:23:13;9.13;;;5.57;;
10347;SDS011;5220;43.192;23.284;2023-07-13T13:25:43;10.13;;;5.88;;
10347;SDS011;5220;43.192;23.284;2023-07-13T13:28:16;10.35;;;5.88;;
10347;SDS011;5220;43.192;23.284;2023-07-13T13:30:44;13.27;;;11.45;;
10347;SDS011;5220;43.192;23.284;2023-07-13T13:33:13;11.43;;;6.25;;
10347;SDS011;5220;43.192;23.284;2023-07-13T13:35:41;10.25;;;5.70;;
10347;SDS011;5220;43.192;23.284;2023-07-13T13:38:09;12.90;;;5.72;;
10347;SDS011;5220;43.192;23.284;2023-07-13T13:40:39;10.55;;;7.05;;
10347;SDS011;5220;43.192;23.284;2023-07-13T13:43:13;9.48;;;5.88;;
10347;SDS011;5220;43.192;23.284;2023-07-13T13:45:42;9.98;;;5.20;;
10347;SDS011;5220;43.192;23.284;2023-07-13T13:48:13;8.00;;;5.50;;
10347;SDS011;5220;43.192;23.284;2023-07-13T13:50:42;11.23;;;5.57;;
10347;SDS011;5220;43.192;23.284;2023-07-13T13:53:09;9.35;;;5.55;;
10347;SDS011;5220;43.192;23.284;2023-07-13T13:55:38;7.30;;;4.95;;
10347;SDS011;5220;43.192;23.284;2023-07-13T13:58:07;11.90;;;5.47;;
10347;SDS011;5220;43.192;23.284;2023-07-13T14:00:36;11.32;;;5.53;;
10347;SDS011;5220;43.192;23.284;2023-07-13T14:03:04;9.88;;;5.88;;
10347;SDS011;5220;43.192;23.284;2023-07-13T14:05:32;12.18;;;5.95;;
10347;SDS011;5220;43.192;23.284;2023-07-13T14:07:59;13.50;;;6.05;;
10347;SDS011;5220;43.192;23.284;2023-07-13T14:10:26;8.98;;;5.93;;
10347;SDS011;5220;43.192;23.284;2023-07-13T14:12:54;12.77;;;5.68;;
10347;SDS011;5220;43.192;23.284;2023-07-13T14:15:23;7.95;;;5.55;;
10347;SDS011;5220;43.192;23.284;2023-07-13T14:17:53;11.90;;;5.47;;
10347;SDS011;5220;43.192;23.284;2023-07-13T14:20:21;10.93;;;6.00;;
10347;SDS011;5220;43.192;23.284;2023-07-13T14:22:49;9.23;;;5.57;;
10347;SDS011;5220;43.192;23.284;2023-07-13T14:25:17;9.98;;;6.10;;
10347;SDS011;5220;43.192;23.284;2023-07-13T14:27:45;11.00;;;5.18;;
10347;SDS011;5220;43.192;23.284;2023-07-13T14:30:16;11.52;;;5.93;;
10347;SDS011;5220;43.192;23.284;2023-07-13T14:32:45;10.32;;;6.10;;
10347;SDS011;5220;43.192;23.284;2023-07-13T14:35:14;13.68;;;7.22;;
10347;SDS011;5220;43.192;23.284;2023-07-13T14:37:42;10.65;;;6.85;;
10347;SDS011;5220;43.192;23.284;2023-07-13T14:40:12;9.98;;;6.15;;
10347;SDS011;5220;43.192;23.284;2023-07-13T14:42:40;8.98;;;5.60;;
10347;SDS011;5220;43.192;23.284;2023-07-13T14:45:12;9.02;;;5.78;;
10347;SDS011;5220;43.192;23.284;2023-07-13T14:47:40;8.93;;;6.45;;
10347;SDS011;5220;43.192;23.284;2023-07-13T14:50:11;11.00;;;5.70;;
10347;SDS011;5220;43.192;23.284;2023-07-13T14:52:42;9.85;;;5.90;;
10347;SDS011;5220;43.192;23.284;2023-07-13T14:55:10;10.18;;;5.80;;
10347;SDS011;5220;43.192;23.284;2023-07-13T14:57:38;9.32;;;5.65;;
10347;SDS011;5220;43.192;23.284;2023-07-13T15:00:05;10.60;;;5.45;;